sensor_id;sensor_type;location;lat;lon;timestamp;temperature;humidity
60860;DHT22;46694;54.382;9.708;2023-07-13T00:01:49;16.50;99.90
60860;DHT22;46694;54.382;9.708;2023-07-13T00:04:29;16.50;99.90
60860;DHT22;46694;54.382;9.708;2023-07-13T00:07:08;16.50;99.90
60860;DHT22;46694;54.382;9.708;2023-07-13T00:09:48;16.40;99.90
60860;DHT22;46694;54.382;9.708;2023-07-13T00:12:33;16.40;99.90
60860;DHT22;46694;54.382;9.708;2023-07-13T00:15:18;16.40;99.90
60860;DHT22;46694;54.382;9.708;2023-07-13T00:18:02;16.40;99.90
60860;DHT22;46694;54.382;9.708;2023-07-13T00:20:42;16.40;99.90
60860;DHT22;46694;54.382;9.708;2023-07-13T00:23:29;16.30;99.90
60860;DHT22;46694;54.382;9.708;2023-07-13T00:26:11;16.30;99.90
60860;DHT22;46694;54.382;9.708;2023-07-13T00:28:51;16.30;99.90
60860;DHT22;46694;54.382;9.708;2023-07-13T00:31:31;16.30;99.90
60860;DHT22;46694;54.382;9.708;2023-07-13T00:34:10;16.40;99.90
60860;DHT22;46694;54.382;9.708;2023-07-13T00:36:49;16.40;99.90
60860;DHT22;46694;54.382;9.708;2023-07-13T00:39:29;16.30;99.90
60860;DHT22;46694;54.382;9.708;2023-07-13T00:42:09;16.30;99.90
60860;DHT22;46694;54.382;9.708;2023-07-13T00:47:52;16.30;99.90
60860;DHT22;46694;54.382;9.708;2023-07-13T00:50:32;16.20;99.90
60860;DHT22;46694;54.382;9.708;2023-07-13T00:53:12;16.20;99.90
60860;DHT22;46694;54.382;9.708;2023-07-13T00:55:54;16.20;99.90
60860;DHT22;46694;54.382;9.708;2023-07-13T00:58:35;16.20;99.90
60860;DHT22;46694;54.382;9.708;2023-07-13T01:01:15;16.20;99.90
60860;DHT22;46694;54.382;9.708;2023-07-13T01:03:54;16.20;99.90
60860;DHT22;46694;54.382;9.708;2023-07-13T01:06:36;16.20;99.90
60860;DHT22;46694;54.382;9.708;2023-07-13T01:09:16;16.20;99.90
60860;DHT22;46694;54.382;9.708;2023-07-13T01:11:55;16.20;99.90
60860;DHT22;46694;54.382;9.708;2023-07-13T01:14:35;16.20;99.90
60860;DHT22;46694;54.382;9.708;2023-07-13T01:17:15;16.20;99.90
60860;DHT22;46694;54.382;9.708;2023-07-13T01:19:55;16.20;99.90
60860;DHT22;46694;54.382;9.708;2023-07-13T01:22:34;16.20;99.90
60860;DHT22;46694;54.382;9.708;2023-07-13T01:25:14;16.10;99.90
60860;DHT22;46694;54.382;9.708;2023-07-13T01:27:53;16.10;99.90
60860;DHT22;46694;54.382;9.708;2023-07-13T01:30:33;16.10;99.90
60860;DHT22;46694;54.382;9.708;2023-07-13T01:33:14;16.10;99.90
60860;DHT22;46694;54.382;9.708;2023-07-13T01:35:55;16.00;99.90
60860;DHT22;46694;54.382;9.708;2023-07-13T01:38:37;16.00;99.90
60860;DHT22;46694;54.382;9.708;2023-07-13T01:41:17;16.00;99.90
60860;DHT22;46694;54.382;9.708;2023-07-13T01:43:57;15.90;99.90
60860;DHT22;46694;54.382;9.708;2023-07-13T01:46:36;15.90;99.90
60860;DHT22;46694;54.382;9.708;2023-07-13T01:49:16;15.90;99.90
60860;DHT22;46694;54.382;9.708;2023-07-13T01:51:55;15.90;99.90
60860;DHT22;46694;54.382;9.708;2023-07-13T01:54:35;15.90;99.90
60860;DHT22;46694;54.382;9.708;2023-07-13T01:57:14;15.90;99.90
60860;DHT22;46694;54.382;9.708;2023-07-13T01:59:54;15.90;99.90
60860;DHT22;46694;54.382;9.708;2023-07-13T02:02:34;15.80;99.90
60860;DHT22;46694;54.382;9.708;2023-07-13T02:05:14;15.80;99.90
60860;DHT22;46694;54.382;9.708;2023-07-13T02:07:53;15.80;99.90
60860;DHT22;46694;54.382;9.708;2023-07-13T02:10:33;15.80;99.90
60860;DHT22;46694;54.382;9.708;2023-07-13T02:13:13;15.80;99.90
60860;DHT22;46694;54.382;9.708;2023-07-13T02:15:53;15.80;99.90
60860;DHT22;46694;54.382;9.708;2023-07-13T02:18:32;15.80;99.90
60860;DHT22;46694;54.382;9.708;2023-07-13T02:21:12;15.80;99.90
60860;DHT22;46694;54.382;9.708;2023-07-13T02:23:52;15.70;99.90
60860;DHT22;46694;54.382;9.708;2023-07-13T02:26:31;15.70;99.90
60860;DHT22;46694;54.382;9.708;2023-07-13T02:29:11;15.70;99.90
60860;DHT22;46694;54.382;9.708;2023-07-13T02:31:50;15.70;99.90
60860;DHT22;46694;54.382;9.708;2023-07-13T02:34:30;15.70;99.90
60860;DHT22;46694;54.382;9.708;2023-07-13T02:37:10;15.70;99.90
60860;DHT22;46694;54.382;9.708;2023-07-13T02:39:49;15.70;99.90
60860;DHT22;46694;54.382;9.708;2023-07-13T02:42:29;15.70;99.90
60860;DHT22;46694;54.382;9.708;2023-07-13T02:45:09;15.70;99.90
60860;DHT22;46694;54.382;9.708;2023-07-13T02:47:48;15.70;99.90
60860;DHT22;46694;54.382;9.708;2023-07-13T02:50:28;15.70;99.90
60860;DHT22;46694;54.382;9.708;2023-07-13T02:53:07;15.70;99.90
60860;DHT22;46694;54.382;9.708;2023-07-13T02:55:47;15.70;99.90
60860;DHT22;46694;54.382;9.708;2023-07-13T02:58:27;15.70;99.90
60860;DHT22;46694;54.382;9.708;2023-07-13T03:01:10;15.70;99.90
60860;DHT22;46694;54.382;9.708;2023-07-13T03:03:51;15.80;99.90
60860;DHT22;46694;54.382;9.708;2023-07-13T03:06:32;15.70;99.90
60860;DHT22;46694;54.382;9.708;2023-07-13T03:09:12;15.80;99.90
60860;DHT22;46694;54.382;9.708;2023-07-13T03:11:55;15.70;99.90
60860;DHT22;46694;54.382;9.708;2023-07-13T03:14:35;15.70;99.90
60860;DHT22;46694;54.382;9.708;2023-07-13T03:17:14;15.70;99.90
60860;DHT22;46694;54.382;9.708;2023-07-13T03:19:54;15.70;99.90
60860;DHT22;46694;54.382;9.708;2023-07-13T03:22:33;15.70;99.90
60860;DHT22;46694;54.382;9.708;2023-07-13T03:25:13;15.80;99.90
60860;DHT22;46694;54.382;9.708;2023-07-13T03:27:53;15.80;99.90
60860;DHT22;46694;54.382;9.708;2023-07-13T03:30:32;15.80;99.90
60860;DHT22;46694;54.382;9.708;2023-07-13T03:33:12;15.80;99.90
60860;DHT22;46694;54.382;9.708;2023-07-13T03:35:51;15.80;99.90
60860;DHT22;46694;54.382;9.708;2023-07-13T03:38:31;15.90;99.90
60860;DHT22;46694;54.382;9.708;2023-07-13T03:41:11;15.90;99.90
60860;DHT22;46694;54.382;9.708;2023-07-13T03:43:51;15.90;99.90
60860;DHT22;46694;54.382;9.708;2023-07-13T03:46:31;15.90;99.90
60860;DHT22;46694;54.382;9.708;2023-07-13T03:49:11;15.90;99.90
60860;DHT22;46694;54.382;9.708;2023-07-13T03:51:51;15.90;99.90
60860;DHT22;46694;54.382;9.708;2023-07-13T03:54:30;15.90;99.90
60860;DHT22;46694;54.382;9.708;2023-07-13T03:57:10;16.00;99.90
60860;DHT22;46694;54.382;9.708;2023-07-13T03:59:50;16.00;99.90
60860;DHT22;46694;54.382;9.708;2023-07-13T04:02:29;16.10;99.90
60860;DHT22;46694;54.382;9.708;2023-07-13T04:05:09;16.00;99.90
60860;DHT22;46694;54.382;9.708;2023-07-13T04:07:48;16.00;99.90
60860;DHT22;46694;54.382;9.708;2023-07-13T04:10:28;16.10;99.90
60860;DHT22;46694;54.382;9.708;2023-07-13T04:13:08;16.10;99.90
60860;DHT22;46694;54.382;9.708;2023-07-13T04:15:47;16.20;99.90
60860;DHT22;46694;54.382;9.708;2023-07-13T04:18:44;16.30;99.90
60860;DHT22;46694;54.382;9.708;2023-07-13T04:21:24;16.30;99.90
60860;DHT22;46694;54.382;9.708;2023-07-13T04:24:03;16.30;99.90
60860;DHT22;46694;54.382;9.708;2023-07-13T04:26:43;16.40;99.90
60860;DHT22;46694;54.382;9.708;2023-07-13T04:29:23;16.40;99.90
60860;DHT22;46694;54.382;9.708;2023-07-13T04:32:02;16.50;99.90
60860;DHT22;46694;54.382;9.708;2023-07-13T04:34:42;16.70;99.90
60860;DHT22;46694;54.382;9.708;2023-07-13T04:37:22;16.90;99.90
60860;DHT22;46694;54.382;9.708;2023-07-13T04:40:02;17.00;99.90
60860;DHT22;46694;54.382;9.708;2023-07-13T04:42:42;17.00;99.90
60860;DHT22;46694;54.382;9.708;2023-07-13T04:45:23;17.10;99.90
60860;DHT22;46694;54.382;9.708;2023-07-13T04:48:03;17.10;99.90
60860;DHT22;46694;54.382;9.708;2023-07-13T04:50:43;17.10;99.90
60860;DHT22;46694;54.382;9.708;2023-07-13T04:53:23;17.10;99.90
60860;DHT22;46694;54.382;9.708;2023-07-13T04:56:03;17.10;99.90
60860;DHT22;46694;54.382;9.708;2023-07-13T05:01:50;17.10;99.90
60860;DHT22;46694;54.382;9.708;2023-07-13T05:04:30;17.10;99.90
60860;DHT22;46694;54.382;9.708;2023-07-13T05:07:10;17.10;99.90
60860;DHT22;46694;54.382;9.708;2023-07-13T05:09:49;17.10;99.90
60860;DHT22;46694;54.382;9.708;2023-07-13T05:12:28;17.00;99.90
60860;DHT22;46694;54.382;9.708;2023-07-13T05:15:08;16.80;99.90
60860;DHT22;46694;54.382;9.708;2023-07-13T05:17:49;16.80;99.90
60860;DHT22;46694;54.382;9.708;2023-07-13T05:20:29;16.80;99.90
60860;DHT22;46694;54.382;9.708;2023-07-13T05:23:09;16.80;99.90
60860;DHT22;46694;54.382;9.708;2023-07-13T05:25:48;16.90;99.90
60860;DHT22;46694;54.382;9.708;2023-07-13T05:28:29;16.90;99.90
60860;DHT22;46694;54.382;9.708;2023-07-13T05:31:10;16.90;99.90
60860;DHT22;46694;54.382;9.708;2023-07-13T05:33:50;17.00;99.90
60860;DHT22;46694;54.382;9.708;2023-07-13T05:36:29;17.00;99.90
60860;DHT22;46694;54.382;9.708;2023-07-13T05:39:09;17.00;99.90
60860;DHT22;46694;54.382;9.708;2023-07-13T05:41:59;17.00;99.90
60860;DHT22;46694;54.382;9.708;2023-07-13T05:44:38;17.00;99.90
60860;DHT22;46694;54.382;9.708;2023-07-13T05:47:18;17.00;99.90
60860;DHT22;46694;54.382;9.708;2023-07-13T05:49:57;17.00;99.90
60860;DHT22;46694;54.382;9.708;2023-07-13T05:52:37;17.00;99.90
60860;DHT22;46694;54.382;9.708;2023-07-13T05:55:17;17.10;99.90
60860;DHT22;46694;54.382;9.708;2023-07-13T05:58:00;17.30;99.90
60860;DHT22;46694;54.382;9.708;2023-07-13T06:00:40;17.40;99.90
60860;DHT22;46694;54.382;9.708;2023-07-13T06:03:19;17.50;99.90
60860;DHT22;46694;54.382;9.708;2023-07-13T06:05:59;17.60;99.90
60860;DHT22;46694;54.382;9.708;2023-07-13T06:08:39;17.70;99.90
60860;DHT22;46694;54.382;9.708;2023-07-13T06:11:22;17.70;99.90
60860;DHT22;46694;54.382;9.708;2023-07-13T06:14:03;17.70;99.90
60860;DHT22;46694;54.382;9.708;2023-07-13T06:16:42;17.90;99.90
60860;DHT22;46694;54.382;9.708;2023-07-13T06:19:22;18.00;99.90
60860;DHT22;46694;54.382;9.708;2023-07-13T06:22:02;18.10;99.90
60860;DHT22;46694;54.382;9.708;2023-07-13T06:24:42;18.20;99.90
60860;DHT22;46694;54.382;9.708;2023-07-13T06:27:21;18.30;99.90
60860;DHT22;46694;54.382;9.708;2023-07-13T06:30:01;18.40;99.90
60860;DHT22;46694;54.382;9.708;2023-07-13T06:32:40;18.60;99.90
60860;DHT22;46694;54.382;9.708;2023-07-13T06:35:20;18.90;99.90
60860;DHT22;46694;54.382;9.708;2023-07-13T06:38:00;19.00;99.90
60860;DHT22;46694;54.382;9.708;2023-07-13T06:40:39;19.00;99.90
60860;DHT22;46694;54.382;9.708;2023-07-13T06:43:18;19.10;99.90
60860;DHT22;46694;54.382;9.708;2023-07-13T06:46:00;19.30;99.90
60860;DHT22;46694;54.382;9.708;2023-07-13T06:48:51;20.10;99.90
60860;DHT22;46694;54.382;9.708;2023-07-13T06:51:30;20.40;99.90
60860;DHT22;46694;54.382;9.708;2023-07-13T06:54:10;20.90;99.90
60860;DHT22;46694;54.382;9.708;2023-07-13T06:56:50;21.40;99.90
60860;DHT22;46694;54.382;9.708;2023-07-13T06:59:29;21.70;99.90
60860;DHT22;46694;54.382;9.708;2023-07-13T07:02:10;21.70;99.90
60860;DHT22;46694;54.382;9.708;2023-07-13T07:04:50;21.70;99.90
60860;DHT22;46694;54.382;9.708;2023-07-13T07:07:30;22.00;99.90
60860;DHT22;46694;54.382;9.708;2023-07-13T07:10:09;22.40;99.90
60860;DHT22;46694;54.382;9.708;2023-07-13T07:12:49;22.50;99.90
60860;DHT22;46694;54.382;9.708;2023-07-13T07:15:29;22.30;99.90
60860;DHT22;46694;54.382;9.708;2023-07-13T07:18:09;21.80;99.90
60860;DHT22;46694;54.382;9.708;2023-07-13T07:20:49;21.30;99.90
60860;DHT22;46694;54.382;9.708;2023-07-13T07:23:29;20.80;99.90
60860;DHT22;46694;54.382;9.708;2023-07-13T07:26:08;20.50;99.90
60860;DHT22;46694;54.382;9.708;2023-07-13T07:28:48;20.10;99.90
60860;DHT22;46694;54.382;9.708;2023-07-13T07:31:31;19.70;99.90
60860;DHT22;46694;54.382;9.708;2023-07-13T07:34:11;19.50;99.90
60860;DHT22;46694;54.382;9.708;2023-07-13T07:36:50;19.30;99.90
60860;DHT22;46694;54.382;9.708;2023-07-13T07:39:30;19.20;99.90
60860;DHT22;46694;54.382;9.708;2023-07-13T07:42:09;19.10;99.90
60860;DHT22;46694;54.382;9.708;2023-07-13T07:44:49;19.00;99.90
60860;DHT22;46694;54.382;9.708;2023-07-13T07:47:29;19.00;99.90
60860;DHT22;46694;54.382;9.708;2023-07-13T07:50:09;19.10;99.90
60860;DHT22;46694;54.382;9.708;2023-07-13T07:52:48;19.20;99.90
60860;DHT22;46694;54.382;9.708;2023-07-13T07:55:28;19.50;99.90
60860;DHT22;46694;54.382;9.708;2023-07-13T07:58:08;19.70;99.90
60860;DHT22;46694;54.382;9.708;2023-07-13T08:00:47;19.80;99.90
60860;DHT22;46694;54.382;9.708;2023-07-13T08:03:27;19.70;99.90
60860;DHT22;46694;54.382;9.708;2023-07-13T08:06:06;19.70;99.90
60860;DHT22;46694;54.382;9.708;2023-07-13T08:08:46;19.60;99.90
60860;DHT22;46694;54.382;9.708;2023-07-13T08:11:25;19.60;99.90
60860;DHT22;46694;54.382;9.708;2023-07-13T08:14:05;19.70;99.90
60860;DHT22;46694;54.382;9.708;2023-07-13T08:16:45;19.70;99.90
60860;DHT22;46694;54.382;9.708;2023-07-13T08:19:24;19.70;99.90
60860;DHT22;46694;54.382;9.708;2023-07-13T08:22:04;19.70;99.90
60860;DHT22;46694;54.382;9.708;2023-07-13T08:24:43;19.50;99.90
60860;DHT22;46694;54.382;9.708;2023-07-13T08:27:24;19.40;99.90
60860;DHT22;46694;54.382;9.708;2023-07-13T08:30:04;19.30;99.90
60860;DHT22;46694;54.382;9.708;2023-07-13T08:32:44;19.10;99.90
60860;DHT22;46694;54.382;9.708;2023-07-13T08:35:24;19.00;99.90
60860;DHT22;46694;54.382;9.708;2023-07-13T08:38:04;19.00;99.90
60860;DHT22;46694;54.382;9.708;2023-07-13T08:40:45;19.10;99.90
60860;DHT22;46694;54.382;9.708;2023-07-13T08:43:35;19.10;99.90
60860;DHT22;46694;54.382;9.708;2023-07-13T08:49:15;20.60;99.90
60860;DHT22;46694;54.382;9.708;2023-07-13T08:52:08;21.40;99.90
60860;DHT22;46694;54.382;9.708;2023-07-13T08:54:55;22.50;99.90
60860;DHT22;46694;54.382;9.708;2023-07-13T08:57:37;23.10;99.90
60860;DHT22;46694;54.382;9.708;2023-07-13T09:00:19;23.70;99.90
60860;DHT22;46694;54.382;9.708;2023-07-13T09:03:00;24.00;99.90
60860;DHT22;46694;54.382;9.708;2023-07-13T09:05:42;24.10;99.90
60860;DHT22;46694;54.382;9.708;2023-07-13T09:14:55;22.20;99.90
60860;DHT22;46694;54.382;9.708;2023-07-13T09:17:51;21.60;99.90
60860;DHT22;46694;54.382;9.708;2023-07-13T09:20:35;21.50;99.90
60860;DHT22;46694;54.382;9.708;2023-07-13T09:23:36;21.90;99.90
60860;DHT22;46694;54.382;9.708;2023-07-13T09:26:18;22.70;99.90
60860;DHT22;46694;54.382;9.708;2023-07-13T09:29:28;23.20;99.90
60860;DHT22;46694;54.382;9.708;2023-07-13T09:32:12;24.20;99.90
60860;DHT22;46694;54.382;9.708;2023-07-13T09:34:54;24.40;99.90
60860;DHT22;46694;54.382;9.708;2023-07-13T09:37:34;24.00;99.90
60860;DHT22;46694;54.382;9.708;2023-07-13T09:40:28;23.60;99.90
60860;DHT22;46694;54.382;9.708;2023-07-13T09:43:15;22.90;99.90
60860;DHT22;46694;54.382;9.708;2023-07-13T09:45:56;22.30;99.90
60860;DHT22;46694;54.382;9.708;2023-07-13T09:48:36;22.20;99.90
60860;DHT22;46694;54.382;9.708;2023-07-13T09:51:15;22.30;99.90
60860;DHT22;46694;54.382;9.708;2023-07-13T09:53:55;22.50;99.90
60860;DHT22;46694;54.382;9.708;2023-07-13T09:56:36;22.80;99.90
60860;DHT22;46694;54.382;9.708;2023-07-13T09:59:20;23.20;99.90
60860;DHT22;46694;54.382;9.708;2023-07-13T10:02:02;23.60;99.90
60860;DHT22;46694;54.382;9.708;2023-07-13T10:04:43;24.10;99.90
60860;DHT22;46694;54.382;9.708;2023-07-13T10:07:23;24.50;99.90
60860;DHT22;46694;54.382;9.708;2023-07-13T10:10:03;24.70;99.90
60860;DHT22;46694;54.382;9.708;2023-07-13T10:12:53;25.00;99.90
60860;DHT22;46694;54.382;9.708;2023-07-13T10:15:33;25.10;99.90
60860;DHT22;46694;54.382;9.708;2023-07-13T10:18:12;25.10;99.90
60860;DHT22;46694;54.382;9.708;2023-07-13T10:21:11;24.80;99.90
60860;DHT22;46694;54.382;9.708;2023-07-13T10:23:55;24.40;99.90
60860;DHT22;46694;54.382;9.708;2023-07-13T10:26:46;24.30;99.90
60860;DHT22;46694;54.382;9.708;2023-07-13T10:29:35;24.40;99.90
60860;DHT22;46694;54.382;9.708;2023-07-13T10:32:19;24.30;99.90
60860;DHT22;46694;54.382;9.708;2023-07-13T10:35:03;24.30;99.90
60860;DHT22;46694;54.382;9.708;2023-07-13T10:37:54;24.20;99.90
60860;DHT22;46694;54.382;9.708;2023-07-13T10:40:40;24.40;99.90
60860;DHT22;46694;54.382;9.708;2023-07-13T10:43:34;24.30;99.90
60860;DHT22;46694;54.382;9.708;2023-07-13T10:46:21;24.40;99.90
60860;DHT22;46694;54.382;9.708;2023-07-13T10:49:05;24.70;99.90
60860;DHT22;46694;54.382;9.708;2023-07-13T10:51:48;24.50;99.90
60860;DHT22;46694;54.382;9.708;2023-07-13T10:54:34;24.30;99.90
60860;DHT22;46694;54.382;9.708;2023-07-13T10:57:21;24.00;99.90
60860;DHT22;46694;54.382;9.708;2023-07-13T11:03:00;24.10;99.90
60860;DHT22;46694;54.382;9.708;2023-07-13T11:05:42;24.20;99.90
60860;DHT22;46694;54.382;9.708;2023-07-13T11:08:32;24.00;99.90
60860;DHT22;46694;54.382;9.708;2023-07-13T11:11:36;23.60;99.90
60860;DHT22;46694;54.382;9.708;2023-07-13T11:25:48;24.10;99.90
60860;DHT22;46694;54.382;9.708;2023-07-13T11:28:31;24.10;99.90
60860;DHT22;46694;54.382;9.708;2023-07-13T11:31:15;24.20;99.90
60860;DHT22;46694;54.382;9.708;2023-07-13T11:33:56;24.00;99.60
60860;DHT22;46694;54.382;9.708;2023-07-13T11:36:39;24.00;99.50
60860;DHT22;46694;54.382;9.708;2023-07-13T11:39:30;24.10;99.40
60860;DHT22;46694;54.382;9.708;2023-07-13T11:42:14;24.20;99.10
60860;DHT22;46694;54.382;9.708;2023-07-13T11:44:55;24.40;99.70
60860;DHT22;46694;54.382;9.708;2023-07-13T11:47:40;24.80;99.60
60860;DHT22;46694;54.382;9.708;2023-07-13T11:50:22;24.90;99.20
60860;DHT22;46694;54.382;9.708;2023-07-13T11:53:03;24.80;99.30
60860;DHT22;46694;54.382;9.708;2023-07-13T11:55:43;24.70;99.70
60860;DHT22;46694;54.382;9.708;2023-07-13T11:58:24;24.60;99.90
60860;DHT22;46694;54.382;9.708;2023-07-13T12:01:05;24.60;99.50
60860;DHT22;46694;54.382;9.708;2023-07-13T12:03:45;24.60;99.40
60860;DHT22;46694;54.382;9.708;2023-07-13T12:06:29;24.60;99.90
60860;DHT22;46694;54.382;9.708;2023-07-13T12:09:14;24.70;99.90
60860;DHT22;46694;54.382;9.708;2023-07-13T12:11:59;24.90;99.70
60860;DHT22;46694;54.382;9.708;2023-07-13T12:14:40;24.90;99.40
60860;DHT22;46694;54.382;9.708;2023-07-13T12:17:22;24.70;99.40
60860;DHT22;46694;54.382;9.708;2023-07-13T12:20:26;24.60;99.50
60860;DHT22;46694;54.382;9.708;2023-07-13T12:23:31;24.40;99.50
60860;DHT22;46694;54.382;9.708;2023-07-13T12:26:12;24.10;99.80
60860;DHT22;46694;54.382;9.708;2023-07-13T12:28:53;23.80;99.90
60860;DHT22;46694;54.382;9.708;2023-07-13T12:31:44;23.40;99.90
60860;DHT22;46694;54.382;9.708;2023-07-13T12:34:26;23.20;99.90
60860;DHT22;46694;54.382;9.708;2023-07-13T12:37:11;23.70;99.90
60860;DHT22;46694;54.382;9.708;2023-07-13T12:39:51;24.00;99.90
60860;DHT22;46694;54.382;9.708;2023-07-13T12:42:32;23.90;99.90
60860;DHT22;46694;54.382;9.708;2023-07-13T12:45:30;23.80;99.90
60860;DHT22;46694;54.382;9.708;2023-07-13T12:48:15;23.60;99.90
60860;DHT22;46694;54.382;9.708;2023-07-13T12:50:56;23.50;99.90
60860;DHT22;46694;54.382;9.708;2023-07-13T12:53:43;23.50;99.90
60860;DHT22;46694;54.382;9.708;2023-07-13T12:56:28;23.30;99.90
60860;DHT22;46694;54.382;9.708;2023-07-13T12:59:17;23.10;99.90
60860;DHT22;46694;54.382;9.708;2023-07-13T13:01:59;22.80;99.90
60860;DHT22;46694;54.382;9.708;2023-07-13T13:04:40;22.60;99.90
60860;DHT22;46694;54.382;9.708;2023-07-13T13:07:19;22.30;99.90
60860;DHT22;46694;54.382;9.708;2023-07-13T13:09:59;22.00;99.90
60860;DHT22;46694;54.382;9.708;2023-07-13T13:12:39;21.70;99.90
60860;DHT22;46694;54.382;9.708;2023-07-13T13:15:21;21.60;99.90
60860;DHT22;46694;54.382;9.708;2023-07-13T13:18:02;21.60;99.90
60860;DHT22;46694;54.382;9.708;2023-07-13T13:20:42;21.60;99.90
60860;DHT22;46694;54.382;9.708;2023-07-13T13:23:21;21.60;99.90
60860;DHT22;46694;54.382;9.708;2023-07-13T13:26:04;21.60;99.90
60860;DHT22;46694;54.382;9.708;2023-07-13T13:28:50;21.50;99.90
60860;DHT22;46694;54.382;9.708;2023-07-13T13:31:29;21.50;99.90
60860;DHT22;46694;54.382;9.708;2023-07-13T13:34:14;21.60;99.90
60860;DHT22;46694;54.382;9.708;2023-07-13T13:36:55;21.60;99.90
60860;DHT22;46694;54.382;9.708;2023-07-13T13:39:35;21.70;99.90
60860;DHT22;46694;54.382;9.708;2023-07-13T13:42:18;21.80;99.90
60860;DHT22;46694;54.382;9.708;2023-07-13T13:45:00;21.90;99.90
60860;DHT22;46694;54.382;9.708;2023-07-13T13:47:40;22.20;99.90
60860;DHT22;46694;54.382;9.708;2023-07-13T13:50:21;22.30;99.90
60860;DHT22;46694;54.382;9.708;2023-07-13T13:53:04;22.30;99.90
60860;DHT22;46694;54.382;9.708;2023-07-13T13:55:43;22.30;99.90
60860;DHT22;46694;54.382;9.708;2023-07-13T13:58:23;22.10;99.90
60860;DHT22;46694;54.382;9.708;2023-07-13T14:01:03;22.00;99.90
60860;DHT22;46694;54.382;9.708;2023-07-13T14:03:47;21.90;99.90
60860;DHT22;46694;54.382;9.708;2023-07-13T14:06:30;21.90;99.90
60860;DHT22;46694;54.382;9.708;2023-07-13T14:09:14;21.80;99.90
60860;DHT22;46694;54.382;9.708;2023-07-13T14:11:54;21.80;99.90
60860;DHT22;46694;54.382;9.708;2023-07-13T14:14:34;21.80;99.90
60860;DHT22;46694;54.382;9.708;2023-07-13T14:17:22;21.70;99.90
60860;DHT22;46694;54.382;9.708;2023-07-13T14:20:09;21.70;99.90
60860;DHT22;46694;54.382;9.708;2023-07-13T14:22:51;21.70;99.90
60860;DHT22;46694;54.382;9.708;2023-07-13T14:25:31;21.70;99.90
60860;DHT22;46694;54.382;9.708;2023-07-13T14:28:21;21.90;99.90
60860;DHT22;46694;54.382;9.708;2023-07-13T14:31:02;22.10;99.90
60860;DHT22;46694;54.382;9.708;2023-07-13T14:33:42;22.30;99.90
60860;DHT22;46694;54.382;9.708;2023-07-13T14:36:28;22.60;99.90
60860;DHT22;46694;54.382;9.708;2023-07-13T14:39:16;22.70;99.90
60860;DHT22;46694;54.382;9.708;2023-07-13T14:41:57;22.60;99.90
60860;DHT22;46694;54.382;9.708;2023-07-13T14:44:38;22.50;99.90
60860;DHT22;46694;54.382;9.708;2023-07-13T14:47:19;22.40;99.90
60860;DHT22;46694;54.382;9.708;2023-07-13T14:49:58;22.40;99.90
60860;DHT22;46694;54.382;9.708;2023-07-13T14:52:38;22.20;99.90
60860;DHT22;46694;54.382;9.708;2023-07-13T14:55:18;22.20;99.90
60860;DHT22;46694;54.382;9.708;2023-07-13T14:57:58;22.30;99.90
60860;DHT22;46694;54.382;9.708;2023-07-13T15:00:38;22.50;99.90
60860;DHT22;46694;54.382;9.708;2023-07-13T15:03:20;22.80;99.90
60860;DHT22;46694;54.382;9.708;2023-07-13T15:06:02;23.10;99.90
60860;DHT22;46694;54.382;9.708;2023-07-13T15:08:42;23.20;99.90
60860;DHT22;46694;54.382;9.708;2023-07-13T15:11:22;23.30;99.90
60860;DHT22;46694;54.382;9.708;2023-07-13T15:14:01;23.20;99.90
60860;DHT22;46694;54.382;9.708;2023-07-13T15:16:49;23.00;99.90
60860;DHT22;46694;54.382;9.708;2023-07-13T15:19:30;22.90;99.90
60860;DHT22;46694;54.382;9.708;2023-07-13T15:22:12;22.80;99.90
60860;DHT22;46694;54.382;9.708;2023-07-13T15:24:52;22.70;99.90
60860;DHT22;46694;54.382;9.708;2023-07-13T15:27:31;22.70;99.90
60860;DHT22;46694;54.382;9.708;2023-07-13T15:30:11;22.70;99.90
60860;DHT22;46694;54.382;9.708;2023-07-13T15:32:51;22.70;99.90
60860;DHT22;46694;54.382;9.708;2023-07-13T15:35:33;22.60;99.90
60860;DHT22;46694;54.382;9.708;2023-07-13T15:38:19;22.60;99.90
60860;DHT22;46694;54.382;9.708;2023-07-13T15:41:01;22.70;99.90
60860;DHT22;46694;54.382;9.708;2023-07-13T15:43:45;22.60;99.90
60860;DHT22;46694;54.382;9.708;2023-07-13T15:46:27;22.60;99.90
60860;DHT22;46694;54.382;9.708;2023-07-13T15:49:09;22.60;99.90
60860;DHT22;46694;54.382;9.708;2023-07-13T15:51:49;22.80;99.90
60860;DHT22;46694;54.382;9.708;2023-07-13T15:54:28;22.70;99.90
60860;DHT22;46694;54.382;9.708;2023-07-13T15:57:09;22.70;99.90
60860;DHT22;46694;54.382;9.708;2023-07-13T15:59:51;22.70;99.90
60860;DHT22;46694;54.382;9.708;2023-07-13T16:02:30;22.50;99.90
60860;DHT22;46694;54.382;9.708;2023-07-13T16:05:10;22.40;99.90
60860;DHT22;46694;54.382;9.708;2023-07-13T16:07:52;22.30;99.90
60860;DHT22;46694;54.382;9.708;2023-07-13T16:10:36;22.10;99.90
60860;DHT22;46694;54.382;9.708;2023-07-13T16:13:20;21.80;99.90
60860;DHT22;46694;54.382;9.708;2023-07-13T16:15:59;21.70;99.90
60860;DHT22;46694;54.382;9.708;2023-07-13T16:18:39;21.70;99.90
60860;DHT22;46694;54.382;9.708;2023-07-13T16:21:26;21.80;99.90
60860;DHT22;46694;54.382;9.708;2023-07-13T16:24:15;21.90;99.90
60860;DHT22;46694;54.382;9.708;2023-07-13T16:26:57;21.90;99.90
60860;DHT22;46694;54.382;9.708;2023-07-13T16:29:41;21.70;99.90
60860;DHT22;46694;54.382;9.708;2023-07-13T16:32:21;21.60;99.90
60860;DHT22;46694;54.382;9.708;2023-07-13T16:35:00;21.40;99.90
60860;DHT22;46694;54.382;9.708;2023-07-13T16:37:40;21.30;99.90
60860;DHT22;46694;54.382;9.708;2023-07-13T16:40:26;21.10;99.90
60860;DHT22;46694;54.382;9.708;2023-07-13T16:43:11;21.10;99.90
60860;DHT22;46694;54.382;9.708;2023-07-13T16:46:02;21.00;99.90
60860;DHT22;46694;54.382;9.708;2023-07-13T16:52:17;20.80;99.90
60860;DHT22;46694;54.382;9.708;2023-07-13T16:55:01;20.90;99.90
60860;DHT22;46694;54.382;9.708;2023-07-13T16:57:42;20.70;99.90
60860;DHT22;46694;54.382;9.708;2023-07-13T17:00:28;20.50;99.90
60860;DHT22;46694;54.382;9.708;2023-07-13T17:03:16;20.30;99.90
60860;DHT22;46694;54.382;9.708;2023-07-13T17:06:19;20.30;99.90
60860;DHT22;46694;54.382;9.708;2023-07-13T17:09:02;20.30;99.90
60860;DHT22;46694;54.382;9.708;2023-07-13T17:11:46;20.30;99.90
60860;DHT22;46694;54.382;9.708;2023-07-13T17:14:25;20.30;99.90
60860;DHT22;46694;54.382;9.708;2023-07-13T17:17:23;20.30;99.90
60860;DHT22;46694;54.382;9.708;2023-07-13T17:20:31;20.30;99.90
60860;DHT22;46694;54.382;9.708;2023-07-13T17:23:19;20.30;99.90
60860;DHT22;46694;54.382;9.708;2023-07-13T17:26:02;20.20;99.90
60860;DHT22;46694;54.382;9.708;2023-07-13T17:28:43;20.20;99.90
60860;DHT22;46694;54.382;9.708;2023-07-13T17:31:22;20.10;99.90
60860;DHT22;46694;54.382;9.708;2023-07-13T17:34:02;20.10;99.90
60860;DHT22;46694;54.382;9.708;2023-07-13T17:36:42;20.00;99.90